Salt Lake City, Utah
Traffic Map
Current Weather Conditions
Salt Lake City, Utah
Clear
Clear
21°
Feels Like: 21°
Wind Chill: 21° Ceiling: Unl
Heat Index: 21° Visibility: 10mi
Dew Point: Wind: 6mph
Humidity: 39% Direction: 270° (W)
Pressure: 30.05in Gusts: 0mph
Raw Report DataKSLC 250354Z 27005KT 10SM CLR 21/07 A3005 RMK AO2 SLP129 T02110067
Traffic Incident Summary
Active as of:
Severity:
Category:
InformationThere was an issue retrieving the traffic information for this location. Please try a different location or try again shortly.
Advertisements